Time;durP1;ratioP1;P1;durP2;ratioP2;P2;SDS_P1;SDS_P2;PMS_P1;PMS_P2;Temp;Humidity;BMP_temperature;BMP_pressure;BME280_temperature;BME280_humidity;BME280_pressure;Samples;Min_cycle;Max_cycle;Signal;HPM_P1;HPM_P2
2022/03/10 00:01:14;;;;;;;27.57;13.37;;;;;;;2.17;58.03;102268.69;4990624;28;20041;-87
2022/03/10 00:03:40;;;;;;;26.20;12.73;;;;;;;2.16;57.84;102266.94;4990449;28;20038;-87
2022/03/10 00:06:05;;;;;;;24.40;11.93;;;;;;;2.15;59.25;102264.28;4989449;28;20038;-87
2022/03/10 00:08:30;;;;;;;22.63;12.63;;;;;;;2.13;58.42;102261.69;4988718;28;20068;-87
2022/03/10 00:10:55;;;;;;;24.90;12.37;;;;;;;2.08;59.14;102266.69;4989832;28;20061;-87
2022/03/10 00:13:21;;;;;;;23.50;11.90;;;;;;;2.07;60.12;102270.06;4987633;28;20694;-87
2022/03/10 00:15:46;;;;;;;26.50;13.17;;;;;;;2.07;58.04;102271.75;4989228;28;20030;-87
2022/03/10 00:18:11;;;;;;;25.03;12.07;;;;;;;2.06;58.73;102277.69;4987980;28;20038;-87
2022/03/10 00:20:37;;;;;;;25.03;12.27;;;;;;;2.03;58.96;102270.78;4985052;28;20038;-86
2022/03/10 00:23:02;;;;;;;27.47;12.90;;;;;;;2.00;59.07;102280.09;4989363;28;20496;-87
2022/03/10 00:25:27;;;;;;;26.43;12.80;;;;;;;1.99;59.61;102270.63;4989522;28;20405;-87
2022/03/10 00:27:52;;;;;;;25.07;13.13;;;;;;;1.97;58.88;102275.72;4989306;28;20121;-86
2022/03/10 00:30:18;;;;;;;26.07;12.40;;;;;;;1.95;58.91;102273.09;4986945;28;20125;-87
2022/03/10 00:32:47;;;;;;;26.57;13.27;;;;;;;1.91;59.75;102276.38;4985124;28;20034;-87
2022/03/10 00:35:23;;;;;;;26.43;12.90;;;;;;;1.89;59.06;102277.16;4984256;28;20042;-87
2022/03/10 00:37:49;;;;;;;26.10;12.87;;;;;;;1.86;59.85;102270.25;4988561;28;20032;-87
2022/03/10 00:40:15;;;;;;;23.03;11.83;;;;;;;1.84;60.23;102269.31;4990408;28;20299;-87
2022/03/10 00:42:42;;;;;;;24.30;12.23;;;;;;;1.80;60.34;102277.72;4989488;28;20026;-86
2022/03/10 00:45:08;;;;;;;23.80;12.43;;;;;;;1.75;59.83;102280.16;4987688;28;20427;-87
2022/03/10 00:47:34;;;;;;;23.27;11.87;;;;;;;1.73;60.49;102280.88;4990148;28;20501;-90
2022/03/10 00:50:01;;;;;;;23.03;11.80;;;;;;;1.72;60.53;102280.03;4994514;28;20022;-87
2022/03/10 00:52:27;;;;;;;24.60;12.20;;;;;;;1.70;60.60;102283.38;4986523;28;20497;-87
2022/03/10 00:54:52;;;;;;;23.63;12.00;;;;;;;1.63;60.40;102278.03;4989607;28;20394;-87
2022/03/10 00:57:17;;;;;;;23.80;12.47;;;;;;;1.60;59.37;102283.03;4988790;28;20513;-87
2022/03/10 00:59:43;;;;;;;24.53;12.33;;;;;;;1.59;59.56;102293.25;4988135;28;20108;-86
2022/03/10 01:02:08;;;;;;;23.27;12.13;;;;;;;1.57;60.37;102285.50;4984935;28;20041;-86
2022/03/10 01:04:33;;;;;;;26.00;13.10;;;;;;;1.54;60.70;102292.22;4987103;28;20038;-87
2022/03/10 01:06:58;;;;;;;23.73;12.70;;;;;;;1.51;61.39;102290.44;4988737;28;20041;-86
2022/03/10 01:09:24;;;;;;;25.80;12.00;;;;;;;1.50;60.27;102288.69;4988931;28;20041;-87
2022/03/10 01:11:49;;;;;;;23.77;12.50;;;;;;;1.48;60.20;102291.19;4988353;28;20027;-87
2022/03/10 01:14:14;;;;;;;24.90;11.97;;;;;;;1.47;60.77;102294.56;4989301;28;20512;-87
2022/03/10 01:16:40;;;;;;;23.90;12.63;;;;;;;1.44;59.57;102291.03;4989836;28;20544;-87
2022/03/10 01:19:05;;;;;;;23.33;12.50;;;;;;;1.42;60.25;102290.09;4989880;28;20082;-86
2022/03/10 01:21:30;;;;;;;24.00;11.50;;;;;;;1.40;59.75;102286.59;4984903;28;20553;-86
2022/03/10 01:23:56;;;;;;;23.77;11.70;;;;;;;1.36;60.33;102286.50;4987314;28;20541;-86
2022/03/10 01:26:21;;;;;;;23.87;11.43;;;;;;;1.31;60.16;102277.78;4983710;28;20033;-87
2022/03/10 01:28:47;;;;;;;23.20;12.10;;;;;;;1.28;60.34;102279.34;4991899;28;20385;-87
2022/03/10 01:31:12;;;;;;;27.07;11.97;;;;;;;1.25;60.33;102282.66;4987851;28;20034;-86
2022/03/10 01:33:38;;;;;;;23.30;11.97;;;;;;;1.24;61.35;102280.91;4988517;28;20022;-86
2022/03/10 01:36:03;;;;;;;24.33;11.60;;;;;;;1.23;61.01;102271.47;4985437;28;20042;-88
2022/03/10 01:38:28;;;;;;;23.40;11.70;;;;;;;1.21;60.91;102275.66;4988921;28;20038;-86
2022/03/10 01:40:53;;;;;;;21.80;11.00;;;;;;;1.20;61.05;102279.06;4988613;28;20026;-86
2022/03/10 01:43:19;;;;;;;25.03;11.83;;;;;;;1.19;61.69;102279.91;4986953;28;20030;-86
2022/03/10 01:45:45;;;;;;;22.90;12.10;;;;;;;1.18;61.50;102284.13;4988254;28;20026;-87
2022/03/10 01:48:10;;;;;;;23.57;11.23;;;;;;;1.17;61.58;102279.81;4987969;28;20467;-86
2022/03/10 01:50:35;;;;;;;23.23;11.93;;;;;;;1.18;61.31;102285.84;4988836;28;20022;-86
2022/03/10 01:53:02;;;;;;;25.03;11.23;;;;;;;1.17;61.54;102281.53;4989304;28;20370;-87
2022/03/10 01:55:28;;;;;;;21.93;10.90;;;;;;;1.18;61.05;102276.44;4987797;28;20030;-87
2022/03/10 01:57:53;;;;;;;24.90;11.37;;;;;;;1.20;60.89;102281.63;4988233;28;20037;-87
2022/03/10 02:00:19;;;;;;;20.73;11.23;;;;;;;1.23;61.51;102270.63;4989399;28;20105;-87
2022/03/10 02:02:44;;;;;;;23.20;11.47;;;;;;;1.27;60.83;102269.91;4986265;28;20029;-87
2022/03/10 02:05:10;;;;;;;24.33;11.63;;;;;;;1.30;61.00;102276.03;4987591;28;20088;-86
2022/03/10 02:10:23;;;;;;;23.57;11.40;;;;;;;1.33;61.19;102273.56;4988835;28;20088;-87
2022/03/10 02:12:53;;;;;;;22.77;11.13;;;;;;;1.32;60.99;102265.81;4986106;28;20038;-87
2022/03/10 02:18:14;;;;;;;23.13;11.17;;;;;;;1.30;61.31;102272.56;4988014;28;20101;-87
2022/03/10 02:20:40;;;;;;;23.00;10.43;;;;;;;1.27;61.28;102273.34;4990309;28;20031;-87
2022/03/10 02:23:07;;;;;;;20.37;10.40;;;;;;;1.26;60.91;102274.16;4990489;28;20030;-86
2022/03/10 02:25:35;;;;;;;22.33;11.70;;;;;;;1.24;61.69;102267.25;4991371;28;20037;-87
2022/03/10 02:28:01;;;;;;;25.33;11.77;;;;;;;1.22;61.13;102262.03;4990941;28;20022;-86
2022/03/10 02:30:30;;;;;;;21.33;11.27;;;;;;;1.21;61.06;102265.41;4988276;28;20084;-87
2022/03/10 02:32:57;;;;;;;29.33;12.27;;;;;;;1.22;61.42;102262.03;4989445;28;20030;-87
2022/03/10 02:35:22;;;;;;;22.43;11.43;;;;;;;1.20;61.43;102263.66;4990838;28;20050;-87
2022/03/10 02:37:47;;;;;;;21.13;10.97;;;;;;;1.19;62.17;102272.22;4985984;28;20034;-87
2022/03/10 02:40:13;;;;;;;21.27;11.30;;;;;;;1.16;61.46;102272.94;4988736;28;20065;-87
2022/03/10 02:42:39;;;;;;;21.70;10.90;;;;;;;1.15;62.04;102265.22;4983924;28;20023;-86
2022/03/10 02:45:06;;;;;;;23.93;11.07;;;;;;;1.14;62.02;102268.59;4989958;28;20034;-87
2022/03/10 02:47:32;;;;;;;22.67;10.50;;;;;;;1.11;61.76;102269.34;4991105;28;20062;-87
2022/03/10 02:49:57;;;;;;;21.17;11.13;;;;;;;1.09;61.89;102262.41;4990316;28;20410;-87
2022/03/10 02:52:23;;;;;;;23.10;11.37;;;;;;;1.06;61.79;102261.50;4984191;28;20105;-87
2022/03/10 02:54:49;;;;;;;25.03;11.90;;;;;;;1.00;62.55;102261.28;4992690;28;20049;-86
2022/03/10 02:57:14;;;;;;;22.13;10.73;;;;;;;1.02;61.91;102272.47;4992763;28;20034;-86
2022/03/10 02:59:41;;;;;;;19.47;10.10;;;;;;;1.01;62.03;102273.28;4992150;28;20057;-87
2022/03/10 03:02:06;;;;;;;22.17;11.17;;;;;;;0.98;62.02;102277.41;4989628;28;20030;-87
2022/03/10 03:04:31;;;;;;;22.90;10.73;;;;;;;0.94;62.68;102267.88;4986580;28;20038;-87
2022/03/10 03:06:57;;;;;;;24.13;11.47;;;;;;;0.93;62.09;102266.97;4991864;28;20037;-87
2022/03/10 03:09:22;;;;;;;23.57;10.87;;;;;;;0.94;61.90;102273.00;4991843;28;20026;-87
2022/03/10 03:11:48;;;;;;;26.27;11.93;;;;;;;0.94;61.93;102271.28;4986973;28;20039;-86
2022/03/10 03:14:13;;;;;;;20.17;10.97;;;;;;;0.93;61.81;102277.22;4990588;28;20037;-87
2022/03/10 03:16:39;;;;;;;26.07;11.83;;;;;;;0.93;61.51;102274.66;4989960;28;20037;-87
2022/03/10 03:19:05;;;;;;;22.63;11.17;;;;;;;0.93;62.30;102274.66;4990234;28;20474;-87
2022/03/10 03:21:31;;;;;;;24.03;11.23;;;;;;;0.93;61.74;102276.38;5003325;28;20058;-86
2022/03/10 03:23:56;;;;;;;24.70;11.97;;;;;;;0.93;62.00;102274.66;4993381;28;20060;-86
2022/03/10 03:26:21;;;;;;;21.60;10.70;;;;;;;0.94;61.69;102275.56;4990380;28;20045;-86
2022/03/10 03:28:46;;;;;;;26.57;12.20;;;;;;;0.94;61.66;102276.41;4991019;28;20026;-86
2022/03/10 03:31:12;;;;;;;23.13;11.23;;;;;;;0.91;62.29;102281.41;4988294;28;20062;-86
2022/03/10 03:33:38;;;;;;;28.20;11.77;;;;;;;0.91;62.09;102281.41;4990595;28;20034;-86
2022/03/10 03:36:03;;;;;;;20.83;10.33;;;;;;;0.89;62.10;102277.94;4986655;28;20066;-86
2022/03/10 03:38:29;;;;;;;27.20;12.33;;;;;;;0.87;62.94;102277.88;4988783;28;20541;-87
2022/03/10 03:40:54;;;;;;;25.67;11.33;;;;;;;0.84;62.49;102282.03;4991240;28;20458;-86
2022/03/10 03:43:19;;;;;;;27.60;11.13;;;;;;;0.82;62.33;102283.66;4989664;28;20042;-87
2022/03/10 03:45:45;;;;;;;23.70;11.00;;;;;;;0.81;63.59;102284.47;4988075;28;20030;-86
2022/03/10 03:48:10;;;;;;;24.90;11.53;;;;;;;0.79;63.35;102286.09;4988059;28;20109;-86
2022/03/10 03:50:35;;;;;;;24.77;11.60;;;;;;;0.77;63.14;102282.59;4986101;28;20029;-86
2022/03/10 03:53:00;;;;;;;23.80;11.60;;;;;;;0.72;62.64;102290.13;4991006;28;20050;-87
2022/03/10 03:55:26;;;;;;;25.30;12.43;;;;;;;0.69;63.61;102292.56;4988100;28;20097;-87
2022/03/10 03:57:52;;;;;;;24.40;11.10;;;;;;;0.68;63.76;102294.25;4988457;28;20040;-87
2022/03/10 04:00:18;;;;;;;22.87;10.63;;;;;;;0.66;63.35;102301.00;4988206;28;20498;-86
2022/03/10 04:02:44;;;;;;;21.37;10.73;;;;;;;0.63;63.97;102300.88;4986010;28;20512;-86
2022/03/10 04:05:09;;;;;;;24.77;11.13;;;;;;;0.59;63.69;102301.56;4984803;28;20042;-87
2022/03/10 04:07:35;;;;;;;22.47;10.77;;;;;;;0.58;64.16;102304.94;4987448;28;20030;-86
2022/03/10 04:10:01;;;;;;;22.60;10.93;;;;;;;0.55;63.56;102307.38;4989212;28;20038;-86
2022/03/10 04:12:26;;;;;;;21.93;10.77;;;;;;;0.53;63.42;102303.88;4985609;28;20048;-87
2022/03/10 04:14:51;;;;;;;25.13;10.87;;;;;;;0.52;63.92;102304.69;4988296;28;20074;-87
2022/03/10 04:17:17;;;;;;;26.03;11.23;;;;;;;0.50;64.38;102309.75;4985190;28;20045;-86
2022/03/10 04:19:42;;;;;;;25.17;11.70;;;;;;;0.47;63.97;102314.75;4988680;28;20052;-86
2022/03/10 04:22:07;;;;;;;26.70;11.40;;;;;;;0.46;63.85;102307.88;4987879;28;20029;-86
2022/03/10 04:24:33;;;;;;;23.33;10.77;;;;;;;0.45;63.94;102312.13;4986801;28;20034;-86
2022/03/10 04:26:58;;;;;;;22.43;11.00;;;;;;;0.44;63.89;102314.63;4989018;28;20049;-86
2022/03/10 04:29:23;;;;;;;21.53;11.17;;;;;;;0.39;63.24;102311.88;4988396;28;20038;-87
2022/03/10 04:31:48;;;;;;;23.17;10.90;;;;;;;0.37;63.59;102310.09;4988352;28;20041;-86
2022/03/10 04:34:14;;;;;;;21.10;10.67;;;;;;;0.33;63.99;102305.66;4983179;28;20035;-87
2022/03/10 04:36:40;;;;;;;24.57;11.10;;;;;;;0.27;64.18;102308.84;4972144;28;20610;-86
2022/03/10 04:39:05;;;;;;;22.60;11.03;;;;;;;0.26;64.63;102314.75;4952147;28;20072;-86
2022/03/10 04:41:31;;;;;;;24.07;10.97;;;;;;;0.24;64.12;102316.38;4969507;28;20037;-86
2022/03/10 04:43:56;;;;;;;31.10;11.17;;;;;;;0.24;64.08;102311.28;4967917;28;20030;-87
2022/03/10 04:46:22;;;;;;;22.47;11.57;;;;;;;0.23;63.99;102314.63;4970254;28;20074;-86
2022/03/10 04:48:48;;;;;;;25.57;10.73;;;;;;;0.19;63.64;102313.66;4949792;28;20435;-86
2022/03/10 04:51:13;;;;;;;26.80;11.30;;;;;;;0.16;63.79;102313.50;4970659;28;20027;-87
2022/03/10 04:53:39;;;;;;;23.73;11.23;;;;;;;0.12;63.49;102312.53;4970546;28;20026;-86
2022/03/10 04:56:04;;;;;;;24.00;11.33;;;;;;;0.10;64.24;102311.59;4969525;28;20031;-86
2022/03/10 04:58:29;;;;;;;22.30;10.70;;;;;;;0.07;64.56;102308.03;4951894;28;20029;-87
2022/03/10 05:00:55;;;;;;;25.00;11.50;;;;;;;0.04;63.06;102310.47;4951648;28;20022;-86
2022/03/10 05:03:20;;;;;;;23.80;11.50;;;;;;;-0.04;63.83;102313.56;4968532;28;20035;-86
2022/03/10 05:05:48;;;;;;;26.00;11.60;;;;;;;-0.06;63.37;102311.75;4969202;28;20442;-86
2022/03/10 05:08:14;;;;;;;23.27;11.83;;;;;;;-0.08;64.14;102309.13;4969748;28;20702;-87
2022/03/10 05:10:39;;;;;;;25.70;11.90;;;;;;;-0.09;63.93;102311.63;4950048;28;20037;-86
2022/03/10 05:13:04;;;;;;;23.77;12.07;;;;;;;-0.10;63.74;102310.75;4967157;28;20407;-87
2022/03/10 05:15:31;;;;;;;26.53;11.33;;;;;;;-0.13;63.73;102314.84;4968542;28;20432;-86
2022/03/10 05:17:57;;;;;;;26.70;11.77;;;;;;;-0.15;63.79;102314.81;4967784;28;20097;-87
2022/03/10 05:20:25;;;;;;;26.83;11.63;;;;;;;-0.18;64.26;102313.00;4968748;28;20023;-87
2022/03/10 05:22:52;;;;;;;26.57;11.70;;;;;;;-0.22;64.98;102317.91;4969144;28;20018;-86
2022/03/10 05:25:19;;;;;;;26.37;12.13;;;;;;;-0.26;65.44;102328.81;4969805;28;20049;-87
2022/03/10 05:27:45;;;;;;;26.30;12.47;;;;;;;-0.30;65.96;102322.69;4970330;28;20050;-86
2022/03/10 05:30:11;;;;;;;25.53;11.07;;;;;;;-0.31;65.38;102318.38;4970199;28;20023;-86
2022/03/10 05:32:36;;;;;;;24.20;11.07;;;;;;;-0.30;65.84;102322.69;4938567;28;20022;-86
2022/03/10 05:35:03;;;;;;;23.07;11.73;;;;;;;-0.32;65.93;102326.84;4967480;28;20462;-86
2022/03/10 05:37:29;;;;;;;23.50;11.43;;;;;;;-0.32;66.08;102324.28;4969250;28;20027;-87
2022/03/10 05:39:55;;;;;;;24.20;11.80;;;;;;;-0.35;66.08;102319.06;4971257;28;20097;-87
2022/03/10 05:42:20;;;;;;;24.97;11.23;;;;;;;-0.36;65.62;102322.44;4969570;28;20471;-87
2022/03/10 05:44:46;;;;;;;21.60;10.80;;;;;;;-0.39;65.97;102323.16;4967261;28;20125;-86
2022/03/10 05:47:11;;;;;;;22.93;10.70;;;;;;;-0.48;65.45;102327.88;4951590;28;20382;-86
2022/03/10 05:49:36;;;;;;;20.97;10.43;;;;;;;-0.52;66.13;102321.78;4969236;28;20069;-87
2022/03/10 05:52:03;;;;;;;23.83;10.97;;;;;;;-0.57;65.58;102323.25;4968535;28;20516;-86
2022/03/10 05:54:28;;;;;;;20.67;10.70;;;;;;;-0.59;66.06;102322.28;4968957;28;20023;-86
2022/03/10 05:56:54;;;;;;;22.77;10.70;;;;;;;-0.60;66.04;102315.44;4952642;28;20059;-86
2022/03/10 05:59:19;;;;;;;22.90;11.40;;;;;;;-0.61;66.31;102318.78;4970296;28;20026;-86
2022/03/10 06:01:45;;;;;;;25.70;11.13;;;;;;;-0.60;65.72;102318.00;4971169;28;20506;-86
2022/03/10 06:04:11;;;;;;;27.27;11.60;;;;;;;-0.60;65.42;102314.56;4970976;28;20375;-87
2022/03/10 06:06:36;;;;;;;24.50;10.73;;;;;;;-0.60;65.41;102320.53;4951866;28;20097;-86
2022/03/10 06:09:02;;;;;;;27.70;11.80;;;;;;;-0.62;65.31;102319.59;4970137;28;20406;-87
2022/03/10 06:11:28;;;;;;;26.93;12.30;;;;;;;-0.66;65.58;102318.59;4970983;28;20038;-86
2022/03/10 06:13:53;;;;;;;25.13;11.27;;;;;;;-0.67;66.07;102326.19;4971555;28;20080;-86
2022/03/10 06:16:18;;;;;;;25.33;11.70;;;;;;;-0.68;65.31;102326.97;4970670;28;20027;-86
2022/03/10 06:18:45;;;;;;;23.50;11.13;;;;;;;-0.65;65.87;102332.22;4955921;28;20084;-90
2022/03/10 06:21:10;;;;;;;23.27;10.80;;;;;;;-0.63;66.05;102326.41;4954401;28;20011;-86
2022/03/10 06:23:36;;;;;;;25.23;11.50;;;;;;;-0.58;65.92;102326.59;4954517;28;20049;-86
2022/03/10 06:26:01;;;;;;;26.77;11.47;;;;;;;-0.55;65.59;102320.75;4971291;28;20034;-86
2022/03/10 06:28:26;;;;;;;24.13;11.60;;;;;;;-0.51;65.23;102333.72;4951725;28;20118;-86
2022/03/10 06:30:52;;;;;;;24.93;12.13;;;;;;;-0.47;64.69;102330.50;4972456;28;20029;-86
2022/03/10 06:33:17;;;;;;;28.33;12.00;;;;;;;-0.42;65.34;102333.25;4952725;28;20406;-86
2022/03/10 06:35:42;;;;;;;26.17;11.57;;;;;;;-0.37;64.91;102331.78;4985116;28;20490;-86
2022/03/10 06:38:08;;;;;;;26.80;12.23;;;;;;;-0.32;65.25;102342.19;4985012;28;20026;-86
2022/03/10 06:40:34;;;;;;;27.13;12.50;;;;;;;-0.29;65.74;102337.22;4990295;28;20022;-87
2022/03/10 06:42:59;;;;;;;27.33;11.23;;;;;;;-0.27;65.93;102338.16;4987029;28;20037;-86
2022/03/10 06:45:24;;;;;;;23.47;11.83;;;;;;;-0.26;65.69;102334.81;4989483;28;20042;-86
2022/03/10 06:47:50;;;;;;;24.87;11.83;;;;;;;-0.23;64.92;102334.94;4990961;28;20034;-87
2022/03/10 06:50:15;;;;;;;26.00;12.67;;;;;;;-0.18;65.17;102336.03;4990476;28;20033;-87
2022/03/10 06:52:40;;;;;;;24.53;12.10;;;;;;;-0.13;66.27;102338.75;4990525;28;20026;-87
2022/03/10 06:55:06;;;;;;;21.67;11.30;;;;;;;-0.09;66.14;102347.44;4993246;28;21532;-86
2022/03/10 06:57:32;;;;;;;22.20;10.83;;;;;;;-0.08;66.43;102349.19;4993181;28;20478;-86
2022/03/10 06:59:57;;;;;;;23.30;11.83;;;;;;;-0.06;66.92;102343.31;4992489;28;20064;-86
2022/03/10 07:02:23;;;;;;;23.23;11.43;;;;;;;-0.02;65.44;102346.91;4988959;28;20289;-87
2022/03/10 07:04:49;;;;;;;28.20;12.70;;;;;;;0.03;65.25;102353.06;4989260;28;20018;-86
2022/03/10 07:07:14;;;;;;;28.03;12.87;;;;;;;0.07;65.19;102349.84;4992228;28;20088;-87
2022/03/10 07:09:41;;;;;;;23.50;11.53;;;;;;;0.12;64.72;102348.34;4990432;28;20034;-87
2022/03/10 07:12:07;;;;;;;23.23;11.73;;;;;;;0.19;65.31;102358.81;4994004;28;20058;-87
2022/03/10 07:14:33;;;;;;;24.47;11.70;;;;;;;0.26;64.92;102358.28;4993848;28;20030;-87
2022/03/10 07:16:58;;;;;;;28.97;13.27;;;;;;;0.32;65.15;102356.00;4991447;28;20019;-87
2022/03/10 07:19:23;;;;;;;22.57;11.73;;;;;;;0.39;64.87;102360.53;4990588;28;20022;-87
2022/03/10 07:21:48;;;;;;;25.13;12.37;;;;;;;0.48;64.89;102361.72;4990510;28;20486;-87
2022/03/10 07:24:14;;;;;;;24.70;12.37;;;;;;;0.55;64.41;102354.34;4990256;28;20039;-87
2022/03/10 07:26:39;;;;;;;27.00;12.37;;;;;;;0.66;64.60;102362.47;4991999;28;20064;-87
2022/03/10 07:29:04;;;;;;;25.97;13.03;;;;;;;0.73;64.35;102351.63;4990646;28;20068;-88
2022/03/10 07:31:31;;;;;;;24.80;11.90;;;;;;;0.83;64.02;102349.44;4988801;28;20022;-87
2022/03/10 07:33:56;;;;;;;31.80;13.03;;;;;;;0.92;64.11;102349.78;4991072;28;20022;-87
2022/03/10 07:36:22;;;;;;;26.37;12.60;;;;;;;1.01;63.93;102345.03;4991515;28;20413;-87
2022/03/10 07:38:48;;;;;;;26.47;12.60;;;;;;;1.11;63.94;102345.38;4989837;28;20080;-87
2022/03/10 07:41:13;;;;;;;22.97;11.77;;;;;;;1.22;63.74;102346.63;4990560;28;20022;-87
2022/03/10 07:43:39;;;;;;;22.73;11.43;;;;;;;1.32;63.38;102343.63;4990194;28;20487;-87
2022/03/10 07:46:07;;;;;;;26.90;11.87;;;;;;;1.43;63.11;102349.16;4990146;28;20110;-87
2022/03/10 07:48:33;;;;;;;25.13;11.97;;;;;;;1.54;62.60;102349.50;4983187;28;20481;-87
2022/03/10 07:50:59;;;;;;;24.77;12.17;;;;;;;1.65;63.32;102349.91;4992250;28;20388;-87
2022/03/10 07:53:24;;;;;;;27.00;12.53;;;;;;;1.76;62.82;102347.72;4990692;28;20030;-87
2022/03/10 07:55:54;;;;;;;26.20;12.67;;;;;;;1.85;62.82;102345.47;4990582;28;20033;-87
2022/03/10 07:58:22;;;;;;;25.70;12.23;;;;;;;1.97;62.85;102342.44;4987665;28;20034;-87
2022/03/10 08:00:48;;;;;;;25.13;13.37;;;;;;;2.06;62.95;102336.75;4989927;28;20034;-86
2022/03/10 08:03:13;;;;;;;27.87;12.27;;;;;;;2.16;62.82;102338.81;4991804;28;20030;-87
2022/03/10 08:05:38;;;;;;;27.07;13.43;;;;;;;2.26;62.53;102342.56;4982630;28;20038;-87
2022/03/10 08:08:04;;;;;;;28.73;12.63;;;;;;;2.37;63.13;102348.06;4992650;28;20109;-87
2022/03/10 08:10:30;;;;;;;27.07;13.43;;;;;;;2.46;63.01;102338.06;4991869;28;20036;-87
2022/03/10 08:12:55;;;;;;;26.87;12.40;;;;;;;2.56;62.02;102337.53;4991765;28;20088;-87
2022/03/10 08:15:21;;;;;;;27.23;12.73;;;;;;;2.68;61.54;102338.75;4991728;28;20027;-88
2022/03/10 08:17:47;;;;;;;25.83;13.33;;;;;;;2.77;62.32;102339.03;4990665;28;20393;-87
2022/03/10 08:20:13;;;;;;;25.80;12.93;;;;;;;2.87;61.60;102341.06;4992392;28;20473;-87
2022/03/10 08:22:38;;;;;;;27.37;13.00;;;;;;;2.98;60.70;102343.09;4992173;28;20144;-86
2022/03/10 08:25:04;;;;;;;27.07;12.90;;;;;;;3.09;61.61;102345.97;4990268;28;20639;-86
2022/03/10 08:27:29;;;;;;;24.60;12.23;;;;;;;3.17;60.99;102340.22;4992515;28;20143;-87
2022/03/10 08:29:54;;;;;;;27.47;13.47;;;;;;;3.29;60.29;102339.72;4991663;28;20033;-87
2022/03/10 08:32:21;;;;;;;24.90;12.50;;;;;;;3.39;60.00;102330.56;4989933;28;20026;-88
2022/03/10 08:34:46;;;;;;;25.17;12.80;;;;;;;3.49;60.13;102323.97;4985115;28;20054;-87
2022/03/10 08:37:11;;;;;;;23.93;12.53;;;;;;;3.59;59.33;102328.53;4972552;28;20026;-87
2022/03/10 08:39:37;;;;;;;26.50;11.93;;;;;;;3.70;59.25;102321.09;4970393;28;20034;-87
2022/03/10 08:42:02;;;;;;;24.93;12.53;;;;;;;3.80;58.70;102328.22;4976311;28;20022;-86
2022/03/10 08:44:27;;;;;;;28.47;12.80;;;;;;;3.92;58.73;102319.09;4972506;28;20037;-86
2022/03/10 08:46:53;;;;;;;25.90;12.97;;;;;;;4.00;58.26;102325.31;4975320;28;20061;-86
2022/03/10 08:49:18;;;;;;;28.00;13.20;;;;;;;4.09;58.39;102328.13;4973145;28;20038;-87
2022/03/10 08:51:48;;;;;;;24.17;12.67;;;;;;;4.18;59.09;102309.47;4959300;28;20030;-86
2022/03/10 08:54:13;;;;;;;27.03;13.00;;;;;;;4.27;59.33;102311.34;4972390;28;20031;-84
2022/03/10 08:56:39;;;;;;;25.93;12.47;;;;;;;4.36;57.59;102314.19;4971912;28;20406;-86
2022/03/10 08:59:04;;;;;;;25.80;13.10;;;;;;;4.46;57.61;102325.56;4970189;28;20513;-85
2022/03/10 09:01:29;;;;;;;25.63;13.13;;;;;;;4.56;57.54;102319.78;4972162;28;20034;-86
2022/03/10 09:03:55;;;;;;;25.07;13.17;;;;;;;4.65;57.54;102328.59;4969770;28;20042;-86
2022/03/10 09:06:20;;;;;;;23.83;12.93;;;;;;;4.71;57.37;102321.84;4970602;28;20037;-86
2022/03/10 09:08:45;;;;;;;27.27;13.23;;;;;;;4.80;56.45;102310.00;4956655;28;20099;-86
2022/03/10 09:11:11;;;;;;;26.70;13.10;;;;;;;4.88;56.98;102305.88;4960432;28;20027;-87
2022/03/10 09:13:36;;;;;;;26.37;13.13;;;;;;;4.99;57.01;102304.41;4979523;28;20110;-85
2022/03/10 09:16:02;;;;;;;24.90;12.83;;;;;;;5.09;56.65;102297.72;4971689;28;20098;-86
2022/03/10 09:18:27;;;;;;;28.07;13.93;;;;;;;5.21;57.56;102301.41;4970430;28;20054;-86
2022/03/10 09:20:53;;;;;;;26.57;13.53;;;;;;;5.32;57.04;102305.91;4985709;28;20038;-86
2022/03/10 09:23:18;;;;;;;27.57;13.07;;;;;;;5.43;56.65;102295.81;4971098;28;20407;-87
2022/03/10 09:25:43;;;;;;;26.13;13.40;;;;;;;5.52;57.25;102291.69;4974169;28;20062;-87
2022/03/10 09:28:10;;;;;;;29.63;13.57;;;;;;;5.60;57.21;102290.97;4971577;28;20444;-87
2022/03/10 09:30:35;;;;;;;32.90;14.20;;;;;;;5.68;56.51;102282.50;4972243;28;20027;-88
2022/03/10 09:33:01;;;;;;;27.45;13.23;;;;;;;5.77;56.48;102277.50;4976041;28;20038;-88
2022/03/10 09:35:27;;;;;;;27.52;13.82;;;;;;;5.82;56.24;102286.19;4982146;28;20046;-88
2022/03/10 09:37:52;;;;;;;26.80;13.43;;;;;;;5.87;55.54;102279.38;4986941;28;20026;-87
2022/03/10 09:40:18;;;;;;;27.45;14.20;;;;;;;5.96;56.29;102272.66;4989858;28;20030;-88
2022/03/10 09:42:47;;;;;;;27.65;13.70;;;;;;;6.04;56.59;102277.13;4990627;28;20554;-88
2022/03/10 09:45:14;;;;;;;25.15;13.23;;;;;;;6.13;56.28;102273.84;4993391;28;20581;-88
2022/03/10 09:47:42;;;;;;;26.38;13.68;;;;;;;6.23;55.77;102273.13;5003825;28;20034;-89
2022/03/10 09:50:10;;;;;;;29.10;13.75;;;;;;;6.36;55.32;102268.13;4988338;28;20026;-87
2022/03/10 09:52:36;;;;;;;31.75;14.07;;;;;;;6.46;54.54;102270.03;4991522;28;20026;-87
2022/03/10 09:55:02;;;;;;;29.30;13.98;;;;;;;6.55;55.46;102269.28;4991115;28;20029;-88
2022/03/10 09:57:28;;;;;;;35.50;14.23;;;;;;;6.63;55.28;102272.81;4993459;28;20015;-86
2022/03/10 09:59:57;;;;;;;25.90;13.32;;;;;;;6.70;54.77;102273.78;4993107;28;20033;-87
2022/03/10 10:02:22;;;;;;;30.42;15.20;;;;;;;6.77;53.83;102274.72;4991519;28;20026;-88
2022/03/10 10:04:51;;;;;;;29.58;14.38;;;;;;;6.81;54.58;102272.22;4984198;28;20220;-87
2022/03/10 10:07:21;;;;;;;29.00;14.57;;;;;;;6.92;53.27;102264.56;4994295;28;20026;-86
2022/03/10 10:09:54;;;;;;;31.90;14.23;;;;;;;7.05;53.61;102270.78;4993439;28;20029;-87
2022/03/10 10:12:24;;;;;;;31.52;14.35;;;;;;;7.17;53.42;102267.47;4993111;28;20492;-86
2022/03/10 10:14:50;;;;;;;47.38;23.02;;;;;;;7.29;53.61;102261.56;4987562;28;20022;-87
2022/03/10 10:17:16;;;;;;;33.92;16.33;;;;;;;7.37;53.19;102265.09;4993742;28;20027;-87
2022/03/10 10:19:42;;;;;;;29.30;14.80;;;;;;;7.48;53.14;102259.16;4993208;28;20022;-86
2022/03/10 10:22:11;;;;;;;30.73;14.70;;;;;;;7.59;51.98;102260.13;4993528;28;20516;-87
2022/03/10 10:24:37;;;;;;;29.65;14.75;;;;;;;7.69;52.08;102256.75;4993385;28;20023;-87
2022/03/10 10:27:21;;;;;;;27.10;14.05;;;;;;;7.78;53.19;102252.53;4993012;28;20029;-87
2022/03/10 10:29:46;;;;;;;24.92;12.95;;;;;;;7.82;52.05;102246.53;4992630;28;20394;-88
2022/03/10 10:32:11;;;;;;;24.45;13.52;;;;;;;7.88;52.41;102247.44;4993463;28;20474;-88
2022/03/10 10:34:36;;;;;;;27.00;13.38;;;;;;;7.97;52.05;102245.78;4992746;28;20081;-88
2022/03/10 10:37:02;;;;;;;26.30;13.55;;;;;;;8.02;51.98;102242.38;4995258;28;20112;-88
2022/03/10 10:39:27;;;;;;;27.02;13.82;;;;;;;8.13;52.88;102246.75;4995267;28;20040;-88
2022/03/10 10:41:53;;;;;;;25.33;12.52;;;;;;;8.20;52.76;102243.34;4994432;28;20070;-88
2022/03/10 10:44:20;;;;;;;29.08;13.52;;;;;;;8.25;51.30;102236.47;4994290;28;20393;-87
2022/03/10 10:46:53;;;;;;;26.77;14.20;;;;;;;8.34;50.67;102233.06;4993697;28;20478;-87
2022/03/10 10:49:22;;;;;;;26.67;13.77;;;;;;;8.44;51.20;102226.22;4992812;28;20044;-87
2022/03/10 10:51:49;;;;;;;28.25;14.70;;;;;;;8.51;50.85;102225.44;4986812;28;20038;-88
2022/03/10 10:54:23;;;;;;;28.17;14.35;;;;;;;8.59;51.47;102226.31;4992367;28;20085;-87
2022/03/10 10:56:53;;;;;;;29.60;13.73;;;;;;;8.67;51.48;102225.50;4989771;28;20034;-87
2022/03/10 10:59:38;;;;;;;24.70;13.05;;;;;;;8.77;52.37;102224.66;4992010;28;20038;-87
2022/03/10 11:02:16;;;;;;;23.35;12.63;;;;;;;8.87;50.55;102222.97;4992499;28;20058;-88
2022/03/10 11:04:43;;;;;;;26.05;13.43;;;;;;;8.95;50.74;102231.69;4991901;28;20134;-87
2022/03/10 11:07:10;;;;;;;28.20;13.55;;;;;;;9.03;50.97;102216.13;4989512;28;20029;-87
2022/03/10 11:09:36;;;;;;;26.85;14.45;;;;;;;9.08;49.96;102214.38;4993192;28;20034;-87
2022/03/10 11:12:01;;;;;;;25.30;13.30;;;;;;;9.16;50.63;102212.69;4989091;28;20030;-88
2022/03/10 11:14:26;;;;;;;26.20;13.40;;;;;;;9.27;49.23;102213.56;4993064;28;20125;-88
2022/03/10 11:16:53;;;;;;;25.40;13.80;;;;;;;9.36;51.19;102207.53;4993179;28;20030;-88